Time,TemperatureF,DewpointF,PressureIn,WindDirection,WindDirectionDegrees,WindSpeedMPH,WindSpeedGustMPH,Humidity,HourlyPrecipIn,Conditions,Clouds,dailyrainin,SoftwareType,DateUTC
2013-11-24 00:01:00,22.5,20.0,29.65,NE,45,4.2,-999.0,90,-99.99,,,0.00,Acu-Link.com,2013-11-24 05:01:00,
2013-11-24 00:16:00,22.5,16.1,29.63,West,270,2.7,-999.0,76,-99.99,,,0.00,Acu-Link.com,2013-11-24 05:16:00,
2013-11-24 00:31:00,21.7,14.4,29.64,WNW,292,4.2,-999.0,73,-99.99,,,0.00,Acu-Link.com,2013-11-24 05:31:00,
2013-11-24 00:47:00,21.0,13.7,29.64,NNW,337,4.7,-999.0,73,-99.99,,,0.00,Acu-Link.com,2013-11-24 05:47:00,
2013-11-24 01:02:00,20.1,12.9,29.64,West,270,3.7,-999.0,73,-99.99,,,0.00,Acu-Link.com,2013-11-24 06:02:00,
2013-11-24 01:17:00,19.9,14.5,29.65,WNW,292,4.2,-999.0,79,-99.99,,,0.00,Acu-Link.com,2013-11-24 06:17:00,
2013-11-24 01:32:00,20.1,15.5,29.64,North,0,2.7,-999.0,82,-99.99,,,0.00,Acu-Link.com,2013-11-24 06:32:00,
2013-11-24 01:48:00,19.2,13.5,29.64,SSE,157,2.7,-999.0,78,-99.99,,,0.00,Acu-Link.com,2013-11-24 06:48:00,
2013-11-24 02:03:00,19.0,16.8,29.63,WNW,292,3.2,-999.0,91,-99.99,,,0.00,Acu-Link.com,2013-11-24 07:03:00,
2013-11-24 02:18:00,18.3,17.8,29.63,NNE,22,3.7,-999.0,98,-99.99,,,0.00,Acu-Link.com,2013-11-24 07:18:00,
2013-11-24 02:33:00,17.6,17.1,29.63,NNE,22,3.2,-999.0,98,-99.99,,,0.00,Acu-Link.com,2013-11-24 07:33:00,
2013-11-24 02:48:00,17.6,17.1,29.64,ESE,112,2.2,-999.0,98,-99.99,,,0.00,Acu-Link.com,2013-11-24 07:48:00,
2013-11-24 03:03:00,17.4,15.2,29.63,ESE,112,3.2,-999.0,91,-99.99,,,0.00,Acu-Link.com,2013-11-24 08:03:00,
2013-11-24 03:18:00,17.6,13.6,29.64,SSW,202,1.1,-999.0,84,-99.99,,,0.00,Acu-Link.com,2013-11-24 08:18:00,
2013-11-24 03:33:00,17.4,14.7,29.65,East,90,2.7,-999.0,89,-99.99,,,0.00,Acu-Link.com,2013-11-24 08:33:00,
2013-11-24 03:48:00,17.1,12.3,29.64,ESE,112,2.7,-999.0,81,-99.99,,,0.00,Acu-Link.com,2013-11-24 08:48:00,
2013-11-24 04:04:00,17.1,11.4,29.64,ENE,67,0.0,-999.0,78,-99.99,,,0.00,Acu-Link.com,2013-11-24 09:04:00,
2013-11-24 04:19:00,17.2,12.7,29.64,East,90,0.0,-999.0,82,-99.99,,,0.00,Acu-Link.com,2013-11-24 09:19:00,
2013-11-24 04:34:00,17.4,11.7,29.64,West,270,1.7,-999.0,78,-99.99,,,0.00,Acu-Link.com,2013-11-24 09:34:00,
2013-11-24 04:49:00,17.6,12.2,29.63,SW,225,3.7,-999.0,79,-99.99,,,0.00,Acu-Link.com,2013-11-24 09:49:00,
2013-11-24 05:04:00,17.6,11.3,29.64,NE,45,6.8,-999.0,76,-99.99,,,0.00,Acu-Link.com,2013-11-24 10:04:00,
2013-11-24 05:19:00,17.4,12.0,29.64,West,270,2.2,-999.0,79,-99.99,,,0.00,Acu-Link.com,2013-11-24 10:19:00,
2013-11-24 05:35:00,17.4,11.7,29.63,NNE,22,2.7,-999.0,78,-99.99,,,0.00,Acu-Link.com,2013-11-24 10:35:00,
2013-11-24 05:50:00,17.1,12.6,29.64,West,270,1.7,-999.0,82,-99.99,,,0.00,Acu-Link.com,2013-11-24 10:50:00,
2013-11-24 06:05:00,16.9,13.5,29.64,East,90,3.2,-999.0,86,-99.99,,,0.00,Acu-Link.com,2013-11-24 11:05:00,
2013-11-24 06:21:00,16.9,10.4,29.66,NE,45,1.1,-999.0,75,-99.99,,,0.00,Acu-Link.com,2013-11-24 11:21:00,
2013-11-24 06:36:00,16.9,11.8,29.65,WNW,292,1.1,-999.0,80,-99.99,,,0.00,Acu-Link.com,2013-11-24 11:36:00,
2013-11-24 06:51:00,16.9,10.7,29.65,NW,315,2.2,-999.0,76,-99.99,,,0.00,Acu-Link.com,2013-11-24 11:51:00,
2013-11-24 07:06:00,16.7,11.1,29.66,WNW,292,2.2,-999.0,78,-99.99,,,0.00,Acu-Link.com,2013-11-24 12:06:00,
2013-11-24 07:21:00,16.2,10.3,29.67,WNW,292,7.8,-999.0,77,-99.99,,,0.00,Acu-Link.com,2013-11-24 12:21:00,
2013-11-24 07:37:00,16.0,9.5,29.68,West,270,2.7,-999.0,75,-99.99,,,0.00,Acu-Link.com,2013-11-24 12:37:00,
2013-11-24 07:52:00,16.0,9.8,29.68,WNW,292,4.2,-999.0,76,-99.99,,,0.00,Acu-Link.com,2013-11-24 12:52:00,
2013-11-24 08:07:00,15.6,9.1,29.67,West,270,2.2,-999.0,75,-99.99,,,0.00,Acu-Link.com,2013-11-24 13:07:00,
2013-11-24 08:22:00,16.2,9.7,29.69,WNW,292,2.2,-999.0,75,-99.99,,,0.00,Acu-Link.com,2013-11-24 13:22:00,
2013-11-24 08:37:00,16.3,10.1,29.68,West,270,2.7,-999.0,76,-99.99,,,0.00,Acu-Link.com,2013-11-24 13:37:00,
2013-11-24 08:53:00,16.3,9.5,29.68,SSE,157,4.7,-999.0,74,-99.99,,,0.00,Acu-Link.com,2013-11-24 13:53:00,
2013-11-24 09:08:00,17.2,9.4,29.68,West,270,2.7,-999.0,71,-99.99,,,0.00,Acu-Link.com,2013-11-24 14:08:00,
2013-11-24 09:23:00,17.8,9.1,29.68,WNW,292,3.7,-999.0,68,-99.99,,,0.00,Acu-Link.com,2013-11-24 14:23:00,
2013-11-24 09:39:00,17.6,8.9,29.69,WNW,292,2.2,-999.0,68,-99.99,,,0.00,Acu-Link.com,2013-11-24 14:39:00,
2013-11-24 09:54:00,18.0,9.9,29.69,West,270,3.2,-999.0,70,-99.99,,,0.00,Acu-Link.com,2013-11-24 14:54:00,
2013-11-24 10:09:00,18.0,9.2,29.69,WSW,247,3.7,-999.0,68,-99.99,,,0.00,Acu-Link.com,2013-11-24 15:09:00,
2013-11-24 10:24:00,18.3,9.9,29.69,NNE,22,2.7,-999.0,69,-99.99,,,0.00,Acu-Link.com,2013-11-24 15:24:00,
2013-11-24 10:39:00,19.2,11.0,29.69,West,270,1.1,-999.0,70,-99.99,,,0.00,Acu-Link.com,2013-11-24 15:39:00,
2013-11-24 10:54:00,18.0,9.2,29.71,North,0,3.7,-999.0,68,-99.99,,,0.00,Acu-Link.com,2013-11-24 15:54:00,
2013-11-24 11:10:00,19.0,8.5,29.70,NNE,22,1.7,-999.0,63,-99.99,,,0.00,Acu-Link.com,2013-11-24 16:10:00,
2013-11-24 11:25:00,18.7,8.2,29.70,WNW,292,3.2,-999.0,63,-99.99,,,0.00,Acu-Link.com,2013-11-24 16:25:00,
2013-11-24 11:40:00,19.4,9.9,29.71,ESE,112,2.7,-999.0,66,-99.99,,,0.00,Acu-Link.com,2013-11-24 16:40:00,
2013-11-24 11:55:00,19.0,10.9,29.73,West,270,1.7,-999.0,70,-99.99,,,0.00,Acu-Link.com,2013-11-24 16:55:00,
2013-11-24 12:10:00,18.9,11.1,29.72,North,0,3.2,-999.0,71,-99.99,,,0.00,Acu-Link.com,2013-11-24 17:10:00,
2013-11-24 12:25:00,18.5,10.7,29.73,West,270,2.2,-999.0,71,-99.99,,,0.00,Acu-Link.com,2013-11-24 17:25:00,
2013-11-24 12:40:00,18.5,9.7,29.71,WNW,292,2.2,-999.0,68,-99.99,,,0.00,Acu-Link.com,2013-11-24 17:40:00,
2013-11-24 12:55:00,18.5,8.0,29.72,ESE,112,1.7,-999.0,63,-99.99,,,0.00,Acu-Link.com,2013-11-24 17:55:00,
2013-11-24 13:11:00,18.3,8.5,29.72,NNE,22,1.7,-999.0,65,-99.99,,,0.00,Acu-Link.com,2013-11-24 18:11:00,
2013-11-24 13:26:00,18.5,7.3,29.72,ESE,112,2.7,-999.0,61,-99.99,,,0.00,Acu-Link.com,2013-11-24 18:26:00,
2013-11-24 13:41:00,18.0,7.6,29.74,West,270,2.2,-999.0,63,-99.99,,,0.00,Acu-Link.com,2013-11-24 18:41:00,
2013-11-24 13:56:00,18.1,8.3,29.74,WNW,292,2.7,-999.0,65,-99.99,,,0.00,Acu-Link.com,2013-11-24 18:56:00,
2013-11-24 14:12:00,18.0,8.9,29.74,SSE,157,3.2,-999.0,67,-99.99,,,0.00,Acu-Link.com,2013-11-24 19:12:00,
2013-11-24 14:27:00,17.6,7.5,29.74,SW,225,2.7,-999.0,64,-99.99,,,0.00,Acu-Link.com,2013-11-24 19:27:00,
2013-11-24 14:42:00,17.6,8.5,29.75,ESE,112,5.8,-999.0,67,-99.99,,,0.00,Acu-Link.com,2013-11-24 19:42:00,
2013-11-24 14:57:00,17.4,8.0,29.75,SSW,202,4.2,-999.0,66,-99.99,,,0.00,Acu-Link.com,2013-11-24 19:57:00,
2013-11-24 15:12:00,18.0,8.6,29.75,SW,225,3.2,-999.0,66,-99.99,,,0.00,Acu-Link.com,2013-11-24 20:12:00,
2013-11-24 15:27:00,17.8,9.1,29.75,East,90,0.0,-999.0,68,-99.99,,,0.00,Acu-Link.com,2013-11-24 20:27:00,
2013-11-24 15:42:00,17.4,9.3,29.77,ESE,112,1.1,-999.0,70,-99.99,,,0.00,Acu-Link.com,2013-11-24 20:42:00,
2013-11-24 15:57:00,17.1,9.0,29.77,WNW,292,4.2,-999.0,70,-99.99,,,0.00,Acu-Link.com,2013-11-24 20:57:00,
2013-11-24 16:13:00,16.5,8.8,29.77,ESE,112,2.7,-999.0,71,-99.99,,,0.00,Acu-Link.com,2013-11-24 21:13:00,
2013-11-24 16:28:00,16.5,9.1,29.79,South,180,2.2,-999.0,72,-99.99,,,0.00,Acu-Link.com,2013-11-24 21:28:00,
2013-11-24 16:44:00,16.5,9.1,29.79,NE,45,3.2,-999.0,72,-99.99,,,0.00,Acu-Link.com,2013-11-24 21:44:00,
2013-11-24 16:59:00,16.5,9.4,29.81,ENE,67,1.7,-999.0,73,-99.99,,,0.00,Acu-Link.com,2013-11-24 21:59:00,
2013-11-24 17:14:00,16.5,8.5,29.82,NNE,22,4.2,-999.0,70,-99.99,,,0.00,Acu-Link.com,2013-11-24 22:14:00,
2013-11-24 17:29:00,16.3,7.6,29.81,NNW,337,2.2,-999.0,68,-99.99,,,0.00,Acu-Link.com,2013-11-24 22:29:00,
2013-11-24 17:44:00,16.3,7.6,29.82,WNW,292,5.3,-999.0,68,-99.99,,,0.00,Acu-Link.com,2013-11-24 22:44:00,
2013-11-24 18:00:00,16.3,6.6,29.82,NNE,22,6.3,-999.0,65,-99.99,,,0.00,Acu-Link.com,2013-11-24 23:00:00,
2013-11-24 18:15:00,16.5,6.5,29.84,WNW,292,5.8,-999.0,64,-99.99,,,0.00,Acu-Link.com,2013-11-24 23:15:00,
2013-11-24 18:30:00,16.3,6.3,29.86,NNE,22,7.8,-999.0,64,-99.99,,,0.00,Acu-Link.com,2013-11-24 23:30:00,
2013-11-24 18:46:00,16.3,5.2,29.86,West,270,4.7,-999.0,61,-99.99,,,0.00,Acu-Link.com,2013-11-24 23:46:00,
2013-11-24 19:01:00,16.3,5.9,29.87,NNW,337,4.7,-999.0,63,-99.99,,,0.00,Acu-Link.com,2013-11-25 00:01:00,
2013-11-24 19:16:00,16.0,5.7,29.88,NNW,337,6.3,-999.0,63,-99.99,,,0.00,Acu-Link.com,2013-11-25 00:16:00,
2013-11-24 19:31:00,15.8,4.8,29.89,NW,315,7.3,-999.0,61,-99.99,,,0.00,Acu-Link.com,2013-11-25 00:31:00,
2013-11-24 19:46:00,15.8,5.8,29.90,NNW,337,7.3,-999.0,64,-99.99,,,0.00,Acu-Link.com,2013-11-25 00:46:00,
2013-11-24 20:01:00,15.8,5.5,29.91,WNW,292,5.8,-999.0,63,-99.99,,,0.00,Acu-Link.com,2013-11-25 01:01:00,
2013-11-24 20:16:00,15.6,5.6,29.91,NW,315,5.3,-999.0,64,-99.99,,,0.00,Acu-Link.com,2013-11-25 01:16:00,
2013-11-24 20:31:00,15.3,5.7,29.91,NW,315,4.2,-999.0,65,-99.99,,,0.00,Acu-Link.com,2013-11-25 01:31:00,
2013-11-24 20:46:00,15.1,4.8,29.92,NNW,337,4.7,-999.0,63,-99.99,,,0.00,Acu-Link.com,2013-11-25 01:46:00,
2013-11-24 21:02:00,14.7,5.1,29.92,West,270,4.7,-999.0,65,-99.99,,,0.00,Acu-Link.com,2013-11-25 02:02:00,
2013-11-24 21:17:00,14.7,4.4,29.94,WNW,292,5.3,-999.0,63,-99.99,,,0.00,Acu-Link.com,2013-11-25 02:17:00,
2013-11-24 21:32:00,14.5,4.6,29.94,NNE,22,5.3,-999.0,64,-99.99,,,0.00,Acu-Link.com,2013-11-25 02:32:00,
2013-11-24 21:47:00,14.5,5.2,29.95,WNW,292,5.8,-999.0,66,-99.99,,,0.00,Acu-Link.com,2013-11-25 02:47:00,
2013-11-24 22:02:00,14.4,4.8,29.95,NW,315,5.8,-999.0,65,-99.99,,,0.00,Acu-Link.com,2013-11-25 03:02:00,
2013-11-24 22:18:00,14.0,4.1,29.95,NNW,337,4.7,-999.0,64,-99.99,,,0.00,Acu-Link.com,2013-11-25 03:18:00,
2013-11-24 22:33:00,14.0,4.1,29.96,WNW,292,1.7,-999.0,64,-99.99,,,0.00,Acu-Link.com,2013-11-25 03:33:00,
2013-11-24 22:48:00,14.0,5.1,29.97,WNW,292,2.2,-999.0,67,-99.99,,,0.00,Acu-Link.com,2013-11-25 03:48:00,
2013-11-24 23:03:00,13.6,5.0,29.97,WSW,247,5.3,-999.0,68,-99.99,,,0.00,Acu-Link.com,2013-11-25 04:03:00,
2013-11-24 23:18:00,13.3,4.7,29.99,WNW,292,4.7,-999.0,68,-99.99,,,0.00,Acu-Link.com,2013-11-25 04:18:00,
2013-11-24 23:34:00,13.1,4.2,30.00,West,270,3.7,-999.0,67,-99.99,,,0.00,Acu-Link.com,2013-11-25 04:34:00,
2013-11-24 23:49:00,12.9,4.0,30.03,West,270,2.7,-999.0,67,-99.99,,,0.00,Acu-Link.com,2013-11-25 04:49:00,